createdAt,value
2018-11-02T00:00:06.245Z,9.81
2018-11-02T00:02:35.423Z,9.71
2018-11-02T00:05:04.798Z,9.43
2018-11-02T00:07:34.226Z,9.68
2018-11-02T00:10:03.650Z,9.73
2018-11-02T00:12:32.997Z,9.88
2018-11-02T00:15:02.196Z,9.39
2018-11-02T00:17:31.544Z,9.35
2018-11-02T00:20:00.782Z,9.64
2018-11-02T00:22:30.038Z,9.79
2018-11-02T00:24:59.320Z,9.86
2018-11-02T00:27:28.671Z,9.73
2018-11-02T00:29:57.931Z,9.40
2018-11-02T00:32:27.334Z,9.81
2018-11-02T00:34:56.753Z,9.99
2018-11-02T00:37:26.052Z,10.07
2018-11-02T00:39:55.217Z,10.15
2018-11-02T00:42:24.661Z,10.15
2018-11-02T00:44:53.931Z,10.20
2018-11-02T00:47:23.351Z,10.23
2018-11-02T00:49:52.425Z,10.20
2018-11-02T00:52:21.580Z,10.10
2018-11-02T00:54:51.021Z,10.21
2018-11-02T00:57:20.559Z,10.27
2018-11-02T00:59:49.860Z,10.33
2018-11-02T01:02:19.178Z,10.34
2018-11-02T01:04:48.477Z,10.39
2018-11-02T01:07:17.771Z,10.33
2018-11-02T01:09:47.042Z,10.41
2018-11-02T01:12:16.368Z,10.47
2018-11-02T01:14:45.770Z,10.47
2018-11-02T01:17:15.085Z,10.54
2018-11-02T01:19:44.321Z,10.48
2018-11-02T01:22:13.699Z,10.56
2018-11-02T01:24:42.918Z,10.57
2018-11-02T01:27:12.167Z,10.62
2018-11-02T01:29:41.569Z,10.63
2018-11-02T01:32:10.978Z,10.38
2018-11-02T01:34:40.266Z,10.55
2018-11-02T01:37:09.781Z,10.58
2018-11-02T01:39:39.028Z,10.53
2018-11-02T01:42:08.477Z,10.58
2018-11-02T01:44:37.878Z,10.52
2018-11-02T01:47:07.499Z,10.54
2018-11-02T01:49:36.740Z,10.59
2018-11-02T01:52:06.190Z,10.52
2018-11-02T01:54:35.493Z,10.57
2018-11-02T01:57:04.758Z,10.46
2018-11-02T01:59:33.997Z,10.53
2018-11-02T02:02:03.441Z,10.46
2018-11-02T02:04:32.588Z,10.32
2018-11-02T02:07:01.881Z,10.49
2018-11-02T02:09:31.189Z,10.48
2018-11-02T02:12:00.415Z,10.55
2018-11-02T02:14:29.722Z,10.59
2018-11-02T02:16:59.330Z,10.60
2018-11-02T02:19:28.657Z,10.48
2018-11-02T02:21:58.121Z,10.53
2018-11-02T02:24:27.246Z,10.62
2018-11-02T02:26:56.506Z,10.67
2018-11-02T02:29:25.671Z,10.68
2018-11-02T02:31:54.901Z,10.66
2018-11-02T02:34:24.042Z,10.52
2018-11-02T02:36:53.305Z,10.38
2018-11-02T02:39:22.599Z,10.39
2018-11-02T02:41:51.899Z,10.46
2018-11-02T02:44:21.141Z,9.94
2018-11-02T02:46:50.417Z,10.11
2018-11-02T02:49:19.897Z,10.31
2018-11-02T02:51:49.234Z,10.18
2018-11-02T02:54:18.499Z,9.94
2018-11-02T02:56:47.765Z,9.97
2018-11-02T02:59:17.106Z,10.10
2018-11-02T03:01:46.460Z,10.16
2018-11-02T03:04:15.710Z,10.24
2018-11-02T03:06:44.969Z,10.20
2018-11-02T03:09:14.186Z,10.18
2018-11-02T03:11:43.490Z,10.19
2018-11-02T03:14:13.319Z,10.06
2018-11-02T03:16:43.029Z,10.10
2018-11-02T03:19:12.696Z,10.04
2018-11-02T03:21:42.010Z,10.01
2018-11-02T03:24:11.456Z,9.99
2018-11-02T03:26:40.836Z,9.94
2018-11-02T03:29:11.082Z,9.90
2018-11-02T03:31:40.453Z,9.84
2018-11-02T03:34:09.770Z,9.80
2018-11-02T03:36:39.257Z,9.74
2018-11-02T03:39:10.550Z,9.70
2018-11-02T03:41:39.865Z,9.74
2018-11-02T03:44:09.365Z,9.37
2018-11-02T03:46:38.938Z,9.23
2018-11-02T03:49:08.604Z,9.21
2018-11-02T03:51:37.923Z,9.18
2018-11-02T03:54:07.520Z,9.17
2018-11-02T03:56:36.723Z,9.34
2018-11-02T03:59:06.150Z,9.29
2018-11-02T04:01:35.365Z,9.40
2018-11-02T04:04:04.653Z,9.41
2018-11-02T04:06:33.917Z,9.40
2018-11-02T04:09:03.255Z,9.45
2018-11-02T04:11:32.553Z,9.42
2018-11-02T04:14:01.843Z,9.19
2018-11-02T04:16:31.119Z,9.52
2018-11-02T04:19:00.436Z,9.66
2018-11-02T04:21:29.721Z,9.75
2018-11-02T04:23:59.056Z,9.67
2018-11-02T04:26:28.441Z,9.78
2018-11-02T04:28:57.862Z,9.83
2018-11-02T04:31:27.105Z,9.91
2018-11-02T04:33:56.435Z,9.92
2018-11-02T04:36:25.805Z,9.91
2018-11-02T04:38:55.098Z,9.95
2018-11-02T04:41:24.353Z,9.94
2018-11-02T04:43:53.666Z,9.99
2018-11-02T04:46:22.910Z,10.00
2018-11-02T04:48:52.261Z,9.91
2018-11-02T04:51:21.540Z,9.92
2018-11-02T04:53:54.612Z,9.73
2018-11-02T04:56:24.889Z,9.64
2018-11-02T04:58:54.183Z,9.75
2018-11-02T05:01:23.655Z,9.83
2018-11-02T05:03:52.959Z,9.50
2018-11-02T05:06:22.290Z,9.79
2018-11-02T05:08:51.789Z,9.51
2018-11-02T05:11:21.077Z,9.65
2018-11-02T05:13:50.494Z,9.71
2018-11-02T05:16:19.689Z,9.86
2018-11-02T05:18:49.001Z,9.93
2018-11-02T05:21:18.187Z,10.00
2018-11-02T05:23:47.475Z,9.98
2018-11-02T05:26:16.739Z,10.00
2018-11-02T05:28:46.186Z,10.05
2018-11-02T05:31:15.500Z,10.03
2018-11-02T05:33:44.796Z,10.01
2018-11-02T05:36:14.098Z,10.09
2018-11-02T05:38:43.422Z,9.97
2018-11-02T05:41:12.660Z,10.07
2018-11-02T05:43:41.906Z,9.97
2018-11-02T05:46:11.065Z,10.02
2018-11-02T05:48:40.661Z,9.93
2018-11-02T05:51:09.905Z,9.95
2018-11-02T05:53:38.981Z,9.59
2018-11-02T05:56:07.925Z,9.54
2018-11-02T05:58:36.899Z,9.48
2018-11-02T06:01:05.948Z,9.24
2018-11-02T06:03:34.917Z,9.06
2018-11-02T06:06:03.902Z,9.20
2018-11-02T06:08:32.880Z,9.29
2018-11-02T06:11:01.810Z,9.01
2018-11-02T06:13:30.821Z,9.01
2018-11-02T06:15:59.779Z,9.18
2018-11-02T06:18:28.781Z,9.51
2018-11-02T06:20:57.734Z,9.46
2018-11-02T06:23:26.642Z,9.60
2018-11-02T06:25:55.637Z,9.74
2018-11-02T06:28:24.550Z,9.81
2018-11-02T06:30:53.543Z,9.73
2018-11-02T06:33:22.471Z,9.81
2018-11-02T06:35:51.871Z,9.93
2018-11-02T06:38:20.830Z,10.05
2018-11-02T06:40:49.822Z,9.90
2018-11-02T06:43:18.838Z,10.04
2018-11-02T06:45:47.842Z,10.10
2018-11-02T06:48:16.771Z,10.29
2018-11-02T06:50:46.515Z,9.98
2018-11-02T06:53:15.456Z,10.11
2018-11-02T06:55:44.566Z,10.16
2018-11-02T06:58:13.532Z,10.25
2018-11-02T07:00:42.506Z,10.47
2018-11-02T07:03:11.493Z,10.59
2018-11-02T07:05:40.544Z,10.66
2018-11-02T07:08:09.695Z,10.35
2018-11-02T07:10:38.561Z,10.55
2018-11-02T07:13:07.520Z,10.82
2018-11-02T07:15:36.527Z,10.87
2018-11-02T07:18:05.697Z,11.15
2018-11-02T07:20:34.795Z,10.91
2018-11-02T07:23:03.752Z,10.51
2018-11-02T07:25:32.752Z,11.16
2018-11-02T07:28:01.720Z,11.13
2018-11-02T07:30:30.727Z,11.39
2018-11-02T07:33:02.539Z,11.45
2018-11-02T07:35:32.275Z,11.67
2018-11-02T07:38:01.296Z,11.55
2018-11-02T07:40:30.269Z,11.84
2018-11-02T07:42:59.198Z,11.53
2018-11-02T07:45:28.202Z,11.75
2018-11-02T07:47:57.130Z,11.98
2018-11-02T07:50:26.135Z,12.07
2018-11-02T07:52:55.161Z,12.23
2018-11-02T07:55:24.175Z,12.46
2018-11-02T07:57:53.130Z,12.47
2018-11-02T08:00:22.126Z,12.39
2018-11-02T08:02:51.103Z,12.50
2018-11-02T08:05:20.106Z,12.35
2018-11-02T08:07:49.109Z,12.28
2018-11-02T08:10:18.107Z,12.46
2018-11-02T08:12:47.091Z,12.59
2018-11-02T08:15:16.018Z,12.73
2018-11-02T08:17:45.068Z,12.29
2018-11-02T08:20:14.318Z,12.55
2018-11-02T08:22:43.780Z,12.57
2018-11-02T08:25:13.196Z,13.05
2018-11-02T08:27:42.566Z,13.14
2018-11-02T08:30:12.144Z,13.15
2018-11-02T08:32:41.283Z,12.20
2018-11-02T08:35:12.175Z,12.44
2018-11-02T08:37:41.630Z,12.59
2018-11-02T08:40:12.007Z,13.34
2018-11-02T08:42:41.342Z,13.54
2018-11-02T08:45:10.915Z,13.60
2018-11-02T08:47:39.916Z,13.43
2018-11-02T08:50:10.223Z,12.32
2018-11-02T08:52:39.178Z,12.73
2018-11-02T08:55:08.187Z,13.22
2018-11-02T08:57:37.259Z,13.44
2018-11-02T09:00:07.332Z,13.25
2018-11-02T09:02:36.253Z,13.74
2018-11-02T09:05:05.753Z,13.44
2018-11-02T09:07:34.677Z,12.94
2018-11-02T09:10:04.510Z,13.43
2018-11-02T09:12:33.454Z,13.74
2018-11-02T09:15:02.437Z,13.81
2018-11-02T09:17:31.487Z,13.38
2018-11-02T09:20:00.510Z,14.15
2018-11-02T09:22:29.564Z,14.03
2018-11-02T09:24:58.947Z,14.58
2018-11-02T09:27:27.890Z,14.50
2018-11-02T09:29:56.856Z,14.91
2018-11-02T09:32:25.787Z,15.30
2018-11-02T09:34:54.778Z,15.50
2018-11-02T09:37:23.756Z,15.22
2018-11-02T09:39:52.747Z,15.73
2018-11-02T09:42:22.274Z,15.90
2018-11-02T09:44:51.312Z,16.18
2018-11-02T09:47:20.275Z,15.88
2018-11-02T09:49:49.274Z,15.79
2018-11-02T09:52:18.278Z,16.22
2018-11-02T09:54:47.267Z,16.41
2018-11-02T09:57:16.258Z,16.85
2018-11-02T09:59:45.249Z,16.61
2018-11-02T10:02:14.315Z,16.19
2018-11-02T10:04:44.291Z,16.61
2018-11-02T10:07:13.243Z,16.29
2018-11-02T10:09:42.225Z,16.21
2018-11-02T10:12:11.178Z,15.98
2018-11-02T10:14:40.165Z,16.69
2018-11-02T10:17:09.114Z,16.85
2018-11-02T10:19:38.115Z,17.20
2018-11-02T10:22:07.098Z,17.77
2018-11-02T10:24:36.163Z,17.66
2018-11-02T10:27:05.150Z,17.84
2018-11-02T10:29:34.118Z,17.70
2018-11-02T10:32:03.151Z,17.99
2018-11-02T10:34:32.163Z,18.30
2018-11-02T10:37:01.166Z,18.31
2018-11-02T10:39:30.112Z,17.90
2018-11-02T10:42:07.286Z,17.74
2018-11-02T10:44:39.259Z,18.32
2018-11-02T10:47:09.157Z,18.12
2018-11-02T10:49:38.406Z,18.66
2018-11-02T10:52:07.515Z,18.14
2018-11-02T10:54:36.944Z,17.66
2018-11-02T10:57:06.111Z,17.97
2018-11-02T10:59:35.079Z,17.39
2018-11-02T11:02:14.102Z,17.58
2018-11-02T11:04:43.038Z,17.86
2018-11-02T11:07:12.033Z,17.72
2018-11-02T11:09:41.026Z,17.24
2018-11-02T11:12:10.128Z,17.10
2018-11-02T11:14:39.034Z,16.63
2018-11-02T11:17:08.016Z,16.53
2018-11-02T11:19:37.013Z,17.28
2018-11-02T11:22:06.294Z,16.56
2018-11-02T11:24:35.293Z,16.65
2018-11-02T11:27:04.299Z,16.50
2018-11-02T11:29:33.307Z,16.47
2018-11-02T11:32:02.269Z,16.34
2018-11-02T11:34:31.230Z,16.39
2018-11-02T11:37:00.230Z,16.37
2018-11-02T11:39:29.216Z,15.68
2018-11-02T11:41:58.250Z,16.02
2018-11-02T11:44:27.216Z,15.57
2018-11-02T11:46:56.182Z,15.20
2018-11-02T11:49:25.164Z,15.43
2018-11-02T11:51:54.178Z,15.59
2018-11-02T12:00:25.422Z,15.76
2018-11-02T12:02:54.724Z,16.35
2018-11-02T12:05:24.595Z,16.20
2018-11-02T12:07:54.184Z,16.83
2018-11-02T12:10:24.720Z,17.47
2018-11-02T12:12:54.573Z,18.39
2018-11-02T12:15:24.263Z,18.37
2018-11-02T12:17:53.757Z,18.07
2018-11-02T12:20:24.426Z,17.66
2018-11-02T12:22:56.098Z,17.19
2018-11-02T12:25:25.505Z,17.09
2018-11-02T12:27:55.830Z,16.77
2018-11-02T12:30:25.126Z,16.42
2018-11-02T12:32:54.568Z,16.26
2018-11-02T12:35:23.965Z,16.15
2018-11-02T12:37:53.495Z,16.65
2018-11-02T12:40:23.718Z,16.74
2018-11-02T12:42:53.889Z,16.51
2018-11-02T12:45:23.529Z,16.64
2018-11-02T12:47:52.869Z,16.76
2018-11-02T12:50:24.476Z,16.83
2018-11-02T12:52:54.966Z,16.82
2018-11-02T12:55:24.391Z,16.89
2018-11-02T12:57:53.717Z,16.79
2018-11-02T13:00:24.925Z,16.92
2018-11-02T13:02:54.691Z,16.62
2018-11-02T13:05:23.962Z,16.67
2018-11-02T13:07:53.296Z,16.22
2018-11-02T13:10:23.407Z,15.92
2018-11-02T13:12:52.720Z,15.89
2018-11-02T13:15:23.244Z,16.14
2018-11-02T13:17:52.779Z,16.32
2018-11-02T13:20:22.145Z,16.47
2018-11-02T13:22:52.066Z,16.51
2018-11-02T13:25:22.298Z,16.49
2018-11-02T13:27:52.237Z,16.30
2018-11-02T13:30:21.754Z,15.74
2018-11-02T13:32:50.979Z,15.94
2018-11-02T13:35:20.846Z,16.04
2018-11-02T13:37:50.768Z,15.63
2018-11-02T13:40:20.230Z,15.39
2018-11-02T13:42:49.783Z,15.46
2018-11-02T13:45:19.422Z,15.35
2018-11-02T13:47:48.765Z,15.92
2018-11-02T13:50:18.285Z,16.13
2018-11-02T13:52:47.480Z,16.75
2018-11-02T13:55:16.810Z,16.83
2018-11-02T13:57:46.139Z,16.35
2018-11-02T14:00:16.899Z,16.55
2018-11-02T14:02:46.320Z,17.49
2018-11-02T14:05:16.672Z,17.44
2018-11-02T14:07:46.058Z,17.61
2018-11-02T14:10:15.413Z,17.90
2018-11-02T14:12:45.119Z,17.35
2018-11-02T14:15:15.888Z,17.31
2018-11-02T14:17:45.413Z,18.18
2018-11-02T14:20:15.166Z,18.35
2018-11-02T14:22:44.587Z,18.37
2018-11-02T14:25:15.097Z,18.12
2018-11-02T14:27:44.518Z,18.54
2018-11-02T14:30:15.848Z,19.24
2018-11-02T14:32:45.586Z,18.91
2018-11-02T14:35:14.834Z,18.90
2018-11-02T14:37:44.218Z,18.36
2018-11-02T14:40:13.483Z,18.49
2018-11-02T14:42:43.143Z,18.35
2018-11-02T14:45:14.377Z,17.52
2018-11-02T14:47:44.353Z,17.24
2018-11-02T14:50:13.872Z,17.12
2018-11-02T14:52:43.456Z,16.71
2018-11-02T14:55:13.275Z,16.32
2018-11-02T14:57:42.559Z,16.73
2018-11-02T15:00:12.539Z,16.52
2018-11-02T15:02:42.418Z,16.21
2018-11-02T15:05:12.934Z,16.10
2018-11-02T15:07:43.054Z,16.06
2018-11-02T15:10:12.384Z,15.81
2018-11-02T15:12:41.368Z,15.63
2018-11-02T15:15:11.070Z,15.56
2018-11-02T15:17:40.601Z,15.47
2018-11-02T15:20:11.672Z,15.19
2018-11-02T15:22:40.859Z,15.33
2018-11-02T15:25:10.479Z,13.91
2018-11-02T15:27:39.903Z,13.46
2018-11-02T15:30:11.178Z,13.68
2018-11-02T15:32:40.686Z,13.82
2018-11-02T15:35:10.825Z,13.88
2018-11-02T15:37:40.266Z,13.70
2018-11-02T15:40:10.686Z,13.96
2018-11-02T15:42:40.205Z,14.02
2018-11-02T15:45:11.762Z,13.98
2018-11-02T15:47:41.078Z,14.04
2018-11-02T15:50:10.961Z,13.79
2018-11-02T15:52:40.443Z,13.58
2018-11-02T15:55:10.989Z,13.59
2018-11-02T15:57:40.330Z,13.34
2018-11-02T16:00:20.979Z,13.50
2018-11-02T16:02:51.458Z,12.87
2018-11-02T16:05:20.904Z,13.14
2018-11-02T16:07:50.204Z,13.18
2018-11-02T16:10:19.639Z,13.27
2018-11-02T16:12:48.930Z,13.31
2018-11-02T16:15:18.496Z,13.14
2018-11-02T16:17:47.807Z,12.96
2018-11-02T16:20:17.301Z,13.24
2018-11-02T16:22:46.658Z,13.08
2018-11-02T16:25:16.290Z,13.22
2018-11-02T16:27:45.519Z,13.13
2018-11-02T16:30:14.863Z,12.79
2018-11-02T16:32:44.179Z,12.51
2018-11-02T16:35:13.617Z,12.66
2018-11-02T16:37:42.725Z,12.74
2018-11-02T16:40:13.907Z,12.95
2018-11-02T16:42:43.891Z,12.73
2018-11-02T16:45:14.083Z,12.68
2018-11-02T16:47:43.760Z,12.93
2018-11-02T16:50:13.973Z,12.74
2018-11-02T16:52:43.685Z,12.60
2018-11-02T16:55:12.977Z,12.59
2018-11-02T16:57:42.535Z,12.37
2018-11-02T17:00:15.948Z,12.35
2018-11-02T17:02:46.299Z,12.51
2018-11-02T17:05:16.021Z,12.17
2018-11-02T17:07:45.302Z,12.08
2018-11-02T17:10:15.482Z,12.15
2018-11-02T17:12:45.259Z,12.15
2018-11-02T17:15:14.870Z,12.10
2018-11-02T17:17:44.099Z,11.89
2018-11-02T17:20:14.857Z,11.91
2018-11-02T17:22:44.035Z,11.59
2018-11-02T17:25:13.592Z,11.89
2018-11-02T17:27:42.857Z,12.12
2018-11-02T17:30:16.008Z,11.50
2018-11-02T17:32:45.169Z,12.03
2018-11-02T17:35:14.461Z,12.10
2018-11-02T17:37:43.729Z,12.22
2018-11-02T17:40:14.366Z,12.10
2018-11-02T17:42:44.236Z,12.17
2018-11-02T17:45:13.546Z,12.17
2018-11-02T17:47:43.151Z,12.20
2018-11-02T17:50:13.729Z,12.19
2018-11-02T17:52:44.051Z,12.15
2018-11-02T17:55:13.377Z,12.20
2018-11-02T17:57:42.799Z,11.81
2018-11-02T18:00:13.844Z,11.85
2018-11-02T18:02:44.004Z,11.59
2018-11-02T18:05:13.874Z,11.83
2018-11-02T18:07:43.665Z,12.00
2018-11-02T18:10:14.995Z,11.68
2018-11-02T18:12:44.648Z,11.75
2018-11-02T18:15:14.011Z,11.75
2018-11-02T18:17:43.351Z,11.82
2018-11-02T18:20:14.396Z,11.93
2018-11-02T18:22:43.656Z,11.75
2018-11-02T18:25:13.650Z,11.94
2018-11-02T18:27:43.691Z,11.96
2018-11-02T18:30:13.391Z,11.97
2018-11-02T18:32:42.591Z,11.78
2018-11-02T18:35:11.900Z,11.91
2018-11-02T18:37:41.648Z,11.53
2018-11-02T18:40:12.521Z,11.72
2018-11-02T18:42:41.854Z,11.68
2018-11-02T18:45:13.379Z,11.36
2018-11-02T18:47:46.744Z,11.54
2018-11-02T18:50:17.200Z,11.70
2018-11-02T18:52:47.389Z,11.66
2018-11-02T18:55:18.272Z,11.70
2018-11-02T18:57:47.550Z,11.76
2018-11-02T19:00:17.343Z,11.78
2018-11-02T19:02:46.589Z,11.90
2018-11-02T19:05:17.176Z,11.67
2018-11-02T19:07:46.567Z,11.50
2018-11-02T19:10:16.113Z,11.51
2018-11-02T19:12:45.690Z,11.28
2018-11-02T19:15:16.808Z,11.55
2018-11-02T19:17:46.170Z,11.31
2018-11-02T19:20:15.767Z,11.36
2018-11-02T19:22:45.505Z,11.29
2018-11-02T19:25:15.667Z,11.40
2018-11-02T19:27:46.122Z,11.39
2018-11-02T19:30:15.915Z,11.26
2018-11-02T19:32:45.187Z,11.44
2018-11-02T19:35:15.065Z,11.53
2018-11-02T19:37:44.374Z,11.30
2018-11-02T19:40:14.904Z,11.38
2018-11-02T19:42:44.660Z,11.28
2018-11-02T19:45:14.156Z,11.24
2018-11-02T19:47:48.483Z,11.36
2018-11-02T19:50:19.455Z,11.51
2018-11-02T19:52:48.706Z,11.49
2018-11-02T19:55:17.862Z,11.70
2018-11-02T19:57:47.007Z,11.11
2018-11-02T20:00:16.924Z,11.12
2018-11-02T20:02:46.281Z,11.41
2018-11-02T20:05:16.892Z,11.70
2018-11-02T20:07:46.155Z,11.31
2018-11-02T20:10:16.221Z,11.18
2018-11-02T20:12:45.792Z,11.23
2018-11-02T20:15:15.698Z,11.23
2018-11-02T20:17:45.811Z,11.32
2018-11-02T20:20:16.278Z,11.06
2018-11-02T20:22:45.753Z,11.14
2018-11-02T20:25:16.166Z,10.47
2018-11-02T20:27:45.702Z,10.90
2018-11-02T20:30:16.742Z,11.34
2018-11-02T20:32:46.181Z,11.28
2018-11-02T20:35:15.599Z,10.85
2018-11-02T20:37:45.133Z,11.17
2018-11-02T20:40:16.835Z,11.03
2018-11-02T20:42:46.476Z,11.22
2018-11-02T20:45:16.417Z,10.95
2018-11-02T20:47:51.142Z,10.99
2018-11-02T20:50:20.710Z,11.22
2018-11-02T20:52:50.258Z,10.95
2018-11-02T20:55:19.750Z,11.54
2018-11-02T20:57:49.269Z,11.02
2018-11-02T21:00:20.971Z,11.51
2018-11-02T21:02:50.332Z,11.73
2018-11-02T21:05:20.395Z,11.51
2018-11-02T21:07:50.052Z,11.10
2018-11-02T21:10:20.301Z,11.59
2018-11-02T21:12:49.941Z,11.67
2018-11-02T21:15:20.830Z,11.77
2018-11-02T21:17:50.558Z,11.89
2018-11-02T21:20:22.971Z,11.56
2018-11-02T21:22:52.198Z,11.88
2018-11-02T21:25:21.813Z,11.89
2018-11-02T21:27:51.222Z,11.98
2018-11-02T21:30:22.872Z,11.85
2018-11-02T21:32:52.965Z,11.71
2018-11-02T21:35:23.898Z,11.92
2018-11-02T21:37:53.310Z,11.99
2018-11-02T21:40:24.722Z,10.99
2018-11-02T21:42:53.981Z,10.69
2018-11-02T21:45:24.001Z,11.41
2018-11-02T21:47:53.307Z,11.22
2018-11-02T21:50:22.606Z,11.53
2018-11-02T21:52:51.925Z,11.18
2018-11-02T21:55:21.126Z,11.36
2018-11-02T21:57:50.510Z,11.54
2018-11-02T22:00:20.808Z,11.69
2018-11-02T22:02:50.146Z,11.86
2018-11-02T22:05:19.597Z,11.96
2018-11-02T22:07:49.690Z,11.13
2018-11-02T22:10:19.055Z,10.89
2018-11-02T22:12:48.408Z,11.27
2018-11-02T22:15:17.732Z,11.40
2018-11-02T22:17:47.078Z,11.42
2018-11-02T22:20:16.674Z,11.39
2018-11-02T22:22:45.948Z,11.36
2018-11-02T22:25:18.456Z,11.54
2018-11-02T22:27:48.540Z,10.93
2018-11-02T22:30:18.909Z,11.54
2018-11-02T22:32:48.505Z,11.24
2018-11-02T22:35:17.693Z,11.49
2018-11-02T22:37:47.103Z,11.03
2018-11-02T22:40:16.814Z,11.55
2018-11-02T22:42:45.809Z,11.53
2018-11-02T22:45:15.559Z,11.40
2018-11-02T22:47:49.748Z,10.59
2018-11-02T22:50:18.702Z,11.12
2018-11-02T22:52:47.701Z,10.91
2018-11-02T22:55:16.626Z,10.61
2018-11-02T22:57:45.605Z,10.60
2018-11-02T23:00:17.561Z,10.77
2018-11-02T23:02:47.342Z,10.63
2018-11-02T23:05:16.282Z,10.89
2018-11-02T23:07:45.505Z,10.97
2018-11-02T23:10:14.458Z,10.84
2018-11-02T23:12:43.533Z,10.68
2018-11-02T23:15:13.085Z,11.16
2018-11-02T23:17:42.066Z,11.29
2018-11-02T23:20:13.416Z,11.17
2018-11-02T23:22:42.430Z,11.11
2018-11-02T23:25:12.165Z,11.08
2018-11-02T23:27:42.619Z,11.41
2018-11-02T23:30:11.867Z,11.39
2018-11-02T23:32:40.857Z,10.68
2018-11-02T23:35:10.126Z,11.21
2018-11-02T23:37:39.121Z,10.91
2018-11-02T23:40:08.976Z,10.75
2018-11-02T23:42:38.050Z,10.69
2018-11-02T23:45:07.337Z,10.57
2018-11-02T23:47:36.351Z,10.34
2018-11-02T23:50:06.455Z,10.74
2018-11-02T23:52:35.492Z,10.63
2018-11-02T23:55:04.455Z,11.11
2018-11-02T23:57:33.429Z,10.55
